Terminal Aerodrome Forecast
Issued by NWS

Home | Current Version | Previous Version | Text Only | Print | Product List | Glossary On
Versions: 1 2 3 4 5 6 7 8 9 10 11 12 13 14 15 16 17 18 19 20
484
FTUS43 KSGF 302320
TAFBBG
TAF
KBBG 302320Z 3100/3124 09005KT P6SM SCT080 OVC150
     FM310200 VRB04KT P6SM SKC
     FM311400 18006KT P6SM SCT040 BKN250 PROB30 3116/3120 5SM -TSRA
      BR OVC040CB=

USA.gov is the U.S. government's official web portal to all federal, state and local government web resources and services.